createdAt,value
2019-06-01T00:00:22.438Z,18.73
2019-06-01T00:02:56.115Z,10.37
2019-06-01T00:05:23.590Z,12.17
2019-06-01T00:07:52.891Z,12.60
2019-06-01T00:10:22.170Z,13.70
2019-06-01T00:12:52.428Z,10.97
2019-06-01T00:15:21.750Z,9.57
2019-06-01T00:17:51.326Z,11.27
2019-06-01T00:20:20.607Z,12.73
2019-06-01T00:22:49.902Z,9.70
2019-06-01T00:25:19.171Z,11.40
2019-06-01T00:27:48.796Z,16.27
2019-06-01T00:30:27.151Z,10.40
2019-06-01T00:32:49.486Z,16.37
2019-06-01T00:35:18.795Z,9.37
2019-06-01T00:37:48.106Z,10.40
2019-06-01T00:40:17.462Z,14.07
2019-06-01T00:42:46.738Z,13.23
2019-06-01T00:45:16.157Z,8.87
2019-06-01T00:47:46.643Z,14.70
2019-06-01T00:50:16.075Z,7.90
2019-06-01T00:52:45.362Z,14.07
2019-06-01T00:55:14.718Z,10.17
2019-06-01T00:57:44.005Z,9.10
2019-06-01T01:00:15.043Z,8.43
2019-06-01T01:02:44.364Z,11.50
2019-06-01T01:05:18.232Z,12.53
2019-06-01T01:07:48.674Z,10.63
2019-06-01T01:10:19.324Z,8.87
2019-06-01T01:13:06.929Z,11.07
2019-06-01T01:15:36.442Z,10.20
2019-06-01T01:18:07.640Z,9.90
2019-06-01T01:20:37.953Z,9.73
2019-06-01T01:23:08.380Z,12.33
2019-06-01T01:25:37.679Z,8.93
2019-06-01T01:28:07.946Z,9.77
2019-06-01T01:30:37.323Z,11.17
2019-06-01T01:33:07.782Z,8.67
2019-06-01T01:35:37.074Z,12.90
2019-06-01T01:38:06.636Z,10.10
2019-06-01T01:40:35.905Z,11.40
2019-06-01T01:43:05.176Z,12.33
2019-06-01T01:45:34.459Z,10.60
2019-06-01T01:48:03.740Z,8.73
2019-06-01T01:50:33.028Z,10.63
2019-06-01T01:53:03.317Z,10.47
2019-06-01T01:55:32.828Z,11.60
2019-06-01T01:58:02.116Z,8.77
2019-06-01T02:00:43.111Z,10.50
2019-06-01T02:03:12.413Z,11.03
2019-06-01T02:05:42.089Z,10.50
2019-06-01T02:08:11.439Z,8.93
2019-06-01T02:10:40.902Z,9.87
2019-06-01T02:13:10.242Z,8.37
2019-06-01T02:15:41.947Z,10.20
2019-06-01T02:18:11.306Z,12.47
2019-06-01T02:20:40.589Z,10.57
2019-06-01T02:23:09.948Z,13.03
2019-06-01T02:25:39.538Z,10.73
2019-06-01T02:28:09.241Z,13.53
2019-06-01T02:30:38.529Z,14.33
2019-06-01T02:33:07.808Z,9.67
2019-06-01T02:35:37.120Z,10.23
2019-06-01T02:38:06.392Z,9.93
2019-06-01T02:40:37.266Z,12.50
2019-06-01T02:43:07.192Z,11.77
2019-06-01T02:45:37.701Z,13.47
2019-06-01T02:48:07.087Z,10.43
2019-06-01T02:50:37.487Z,10.07
2019-06-01T02:53:06.869Z,13.47
2019-06-01T02:55:36.228Z,10.87
2019-06-01T02:58:06.701Z,12.17
2019-06-01T03:00:48.340Z,13.20
2019-06-01T03:03:17.891Z,16.23
2019-06-01T03:05:48.144Z,18.50
2019-06-01T03:08:18.763Z,15.40
2019-06-01T03:10:49.507Z,12.27
2019-06-01T03:13:21.492Z,19.87
2019-06-01T03:15:53.937Z,11.10
2019-06-01T03:18:25.487Z,11.27
2019-06-01T03:20:56.682Z,15.70
2019-06-01T03:23:27.710Z,13.97
2019-06-01T03:25:58.170Z,15.37
2019-06-01T03:28:30.186Z,12.63
2019-06-01T03:31:01.134Z,11.57
2019-06-01T03:33:30.500Z,15.20
2019-06-01T03:36:00.726Z,16.37
2019-06-01T03:38:30.225Z,15.10
2019-06-01T03:40:59.981Z,13.53
2019-06-01T03:43:29.543Z,12.07
2019-06-01T03:45:58.836Z,17.03
2019-06-01T03:48:28.148Z,12.50
2019-06-01T03:50:57.427Z,13.03
2019-06-01T03:53:26.795Z,10.90
2019-06-01T03:55:56.095Z,9.97
2019-06-01T03:58:25.402Z,12.53
2019-06-01T04:00:54.661Z,16.73
2019-06-01T04:03:23.974Z,17.50
2019-06-01T04:05:53.259Z,20.00
2019-06-01T04:08:22.631Z,12.10
2019-06-01T04:10:52.984Z,12.10
2019-06-01T04:13:22.282Z,14.73
2019-06-01T04:15:51.626Z,13.90
2019-06-01T04:18:20.954Z,11.90
2019-06-01T04:20:50.226Z,10.83
2019-06-01T04:23:19.526Z,11.93
2019-06-01T04:25:48.811Z,12.30
2019-06-01T04:28:18.099Z,12.37
2019-06-01T04:30:47.383Z,15.30
2019-06-01T04:33:16.670Z,12.90
2019-06-01T04:35:45.968Z,12.80
2019-06-01T04:38:15.326Z,16.17
2019-06-01T04:40:44.602Z,13.77
2019-06-01T04:43:14.247Z,13.73
2019-06-01T04:45:43.658Z,10.30
2019-06-01T04:48:13.000Z,11.70
2019-06-01T04:50:42.283Z,22.10
2019-06-01T04:53:12.160Z,12.33
2019-06-01T04:55:42.555Z,18.97
2019-06-01T04:58:12.981Z,11.17
2019-06-01T05:00:42.399Z,14.83
2019-06-01T05:03:11.959Z,13.47
2019-06-01T05:05:41.740Z,11.63
2019-06-01T05:08:12.601Z,16.80
2019-06-01T05:10:42.487Z,12.33
2019-06-01T05:13:11.791Z,14.97
2019-06-01T05:15:41.071Z,17.13
2019-06-01T05:18:10.347Z,15.73
2019-06-01T05:20:39.638Z,13.20
2019-06-01T05:23:08.926Z,16.80
2019-06-01T05:25:38.282Z,15.57
2019-06-01T05:28:07.594Z,13.63
2019-06-01T05:30:36.904Z,13.33
2019-06-01T05:33:21.448Z,13.43
2019-06-01T05:35:37.180Z,14.03
2019-06-01T05:38:06.473Z,14.67
2019-06-01T05:40:35.755Z,19.13
2019-06-01T05:43:05.039Z,13.50
2019-06-01T05:45:34.389Z,15.13
2019-06-01T05:48:03.689Z,14.77
2019-06-01T05:50:33.030Z,17.87
2019-06-01T05:53:02.348Z,15.07
2019-06-01T05:55:31.634Z,14.23
2019-06-01T05:58:00.918Z,13.30
2019-06-01T06:00:39.391Z,18.27
2019-06-01T06:03:08.726Z,16.30
2019-06-01T06:05:38.015Z,14.97
2019-06-01T06:08:07.295Z,16.03
2019-06-01T06:10:37.042Z,15.17
2019-06-01T06:13:07.286Z,13.73
2019-06-01T06:15:36.626Z,14.17
2019-06-01T06:18:05.903Z,15.97
2019-06-01T06:20:35.193Z,12.50
2019-06-01T06:23:04.472Z,16.77
2019-06-01T06:25:35.743Z,16.13
2019-06-01T06:28:04.800Z,14.50
2019-06-01T06:30:34.130Z,12.80
2019-06-01T06:33:03.440Z,11.30
2019-06-01T06:35:32.724Z,17.17
2019-06-01T06:38:02.005Z,15.87
2019-06-01T06:40:31.302Z,18.87
2019-06-01T06:43:01.130Z,15.93
2019-06-01T06:45:30.454Z,20.43
2019-06-01T06:47:59.742Z,20.63
2019-06-01T06:50:29.050Z,20.07
2019-06-01T06:52:58.376Z,14.63
2019-06-01T06:55:27.657Z,18.40
2019-06-01T06:57:56.943Z,16.93
2019-06-01T07:00:27.040Z,16.13
2019-06-01T07:02:56.431Z,16.50
2019-06-01T07:05:25.724Z,15.53
2019-06-01T07:07:55.097Z,12.93
2019-06-01T07:10:24.390Z,21.73
2019-06-01T07:12:54.841Z,14.00
2019-06-01T07:15:24.131Z,18.97
2019-06-01T07:17:53.889Z,19.60
2019-06-01T07:20:23.691Z,18.77
2019-06-01T07:22:53.073Z,15.90
2019-06-01T07:25:22.351Z,17.30
2019-06-01T07:27:51.641Z,17.33
2019-06-01T07:30:22.097Z,14.70
2019-06-01T07:32:51.575Z,17.73
2019-06-01T07:35:20.859Z,14.87
2019-06-01T07:37:50.150Z,19.53
2019-06-01T07:40:20.936Z,15.23
2019-06-01T07:42:50.398Z,17.10
2019-06-01T07:45:20.804Z,21.13
2019-06-01T07:47:50.153Z,12.87
2019-06-01T07:50:19.811Z,15.53
2019-06-01T07:52:49.254Z,15.87
2019-06-01T07:55:18.556Z,17.57
2019-06-01T07:57:47.844Z,18.03
2019-06-01T08:00:17.283Z,15.80
2019-06-01T08:02:46.660Z,15.93
2019-06-01T08:05:15.982Z,14.00
2019-06-01T08:07:45.287Z,11.67
2019-06-01T08:10:14.584Z,9.53
2019-06-01T08:12:43.881Z,15.07
2019-06-01T08:15:13.588Z,10.53
2019-06-01T08:17:42.941Z,16.23
2019-06-01T08:20:13.636Z,11.00
2019-06-01T08:22:43.026Z,18.77
2019-06-01T08:25:12.423Z,12.13
2019-06-01T08:27:41.715Z,9.87
2019-06-01T08:30:11.124Z,7.10
2019-06-01T08:32:40.435Z,10.60
2019-06-01T08:35:12.474Z,9.83
2019-06-01T08:37:41.791Z,11.87
2019-06-01T08:40:12.683Z,10.30
2019-06-01T08:42:42.075Z,9.17
2019-06-01T08:45:11.482Z,9.70
2019-06-01T08:47:40.783Z,7.27
2019-06-01T08:50:10.413Z,10.90
2019-06-01T08:52:39.703Z,15.57
2019-06-01T08:55:11.947Z,10.00
2019-06-01T08:57:41.223Z,14.90
2019-06-01T09:00:10.997Z,15.20
2019-06-01T09:02:40.310Z,13.07
2019-06-01T09:05:23.339Z,13.03
2019-06-01T09:07:40.962Z,13.97
2019-06-01T09:10:11.187Z,18.67
2019-06-01T09:12:41.531Z,9.80
2019-06-01T09:15:14.157Z,13.40
2019-06-01T09:17:43.443Z,10.73
2019-06-01T09:20:13.103Z,9.50
2019-06-01T09:22:42.357Z,10.27
2019-06-01T09:25:11.839Z,7.83
2019-06-01T09:27:41.113Z,15.23
2019-06-01T09:30:11.047Z,11.00
2019-06-01T09:32:40.334Z,10.37
2019-06-01T09:35:12.256Z,13.17
2019-06-01T09:37:41.526Z,11.17
2019-06-01T09:40:11.263Z,11.00
2019-06-01T09:42:40.541Z,10.67
2019-06-01T09:45:10.067Z,7.67
2019-06-01T09:47:39.344Z,9.47
2019-06-01T09:50:08.968Z,9.53
2019-06-01T09:52:38.243Z,10.73
2019-06-01T09:55:08.695Z,10.97
2019-06-01T09:57:38.344Z,8.90
2019-06-01T10:00:10.422Z,10.30
2019-06-01T10:02:39.713Z,9.47
2019-06-01T10:05:09.090Z,8.17
2019-06-01T10:07:39.315Z,6.87
2019-06-01T10:10:10.062Z,10.47
2019-06-01T10:12:39.333Z,5.07
2019-06-01T10:15:09.109Z,8.37
2019-06-01T10:17:39.018Z,6.03
2019-06-01T10:20:09.979Z,7.37
2019-06-01T10:22:41.465Z,7.20
2019-06-01T10:25:11.241Z,5.73
2019-06-01T10:27:40.556Z,9.07
2019-06-01T10:30:10.276Z,9.67
2019-06-01T10:32:39.941Z,18.57
2019-06-01T10:35:09.585Z,7.17
2019-06-01T10:37:39.663Z,6.57
2019-06-01T10:40:09.102Z,10.53
2019-06-01T10:42:39.742Z,6.83
2019-06-01T10:45:09.891Z,12.47
2019-06-01T10:47:40.121Z,6.80
2019-06-01T10:50:09.967Z,8.53
2019-06-01T10:52:40.413Z,7.53
2019-06-01T10:55:09.953Z,7.13
2019-06-01T10:57:40.520Z,8.07
2019-06-01T11:00:11.251Z,7.77
2019-06-01T11:02:40.925Z,7.57
2019-06-01T11:05:10.828Z,12.63
2019-06-01T11:07:41.019Z,8.03
2019-06-01T11:10:10.961Z,11.70
2019-06-01T11:12:41.118Z,6.63
2019-06-01T11:15:14.310Z,10.63
2019-06-01T11:17:43.588Z,9.97
2019-06-01T11:20:13.094Z,5.27
2019-06-01T11:22:43.605Z,5.03
2019-06-01T11:25:13.128Z,4.87
2019-06-01T11:27:43.915Z,6.30
2019-06-01T11:30:14.332Z,5.62
2019-06-01T11:32:44.954Z,5.27
2019-06-01T11:35:14.655Z,5.13
2019-06-01T11:37:44.540Z,11.37
2019-06-01T11:40:14.345Z,11.43
2019-06-01T11:42:45.138Z,5.03
2019-06-01T11:45:14.994Z,8.23
2019-06-01T11:47:45.118Z,5.77
2019-06-01T11:50:14.607Z,4.93
2019-06-01T11:52:45.302Z,4.90
2019-06-01T11:55:15.037Z,5.07
2019-06-01T11:57:44.369Z,5.20
2019-06-01T12:00:15.910Z,4.07
2019-06-01T12:02:45.961Z,5.70
2019-06-01T12:05:15.723Z,9.77
2019-06-01T12:07:46.108Z,4.77
2019-06-01T12:10:15.754Z,5.80
2019-06-01T12:12:46.347Z,4.20
2019-06-01T12:15:15.770Z,4.80
2019-06-01T12:17:45.130Z,15.73
2019-06-01T12:20:15.733Z,5.03
2019-06-01T12:22:45.180Z,5.77
2019-06-01T12:25:14.621Z,7.40
2019-06-01T12:27:44.006Z,6.27
2019-06-01T12:30:13.347Z,5.87
2019-06-01T12:32:43.937Z,5.20
2019-06-01T12:35:13.632Z,7.20
2019-06-01T12:38:02.039Z,3.27
2019-06-01T12:40:14.998Z,3.77
2019-06-01T12:42:45.789Z,5.33
2019-06-01T12:45:22.662Z,2.83
2019-06-01T12:47:57.548Z,4.03
2019-06-01T12:50:22.064Z,4.20
2019-06-01T12:52:52.644Z,8.20
2019-06-01T12:55:22.059Z,10.30
2019-06-01T12:57:51.439Z,3.67
2019-06-01T13:00:20.776Z,4.77
2019-06-01T13:03:01.888Z,8.13
2019-06-01T13:05:21.044Z,3.97
2019-06-01T13:07:58.212Z,3.60
2019-06-01T13:10:21.319Z,4.80
2019-06-01T13:12:52.280Z,2.33
2019-06-01T13:15:21.687Z,6.50
2019-06-01T13:17:51.468Z,3.67
2019-06-01T13:20:21.209Z,5.07
2019-06-01T13:22:51.813Z,2.20
2019-06-01T13:25:21.276Z,4.20
2019-06-01T13:27:50.730Z,15.50
2019-06-01T13:30:20.111Z,7.33
2019-06-01T13:32:50.623Z,9.30
2019-06-01T13:35:20.045Z,4.67
2019-06-01T13:37:49.323Z,19.00
2019-06-01T13:40:18.610Z,10.73
2019-06-01T13:42:49.168Z,7.33
2019-06-01T13:45:18.858Z,3.70
2019-06-01T13:47:48.139Z,9.53
2019-06-01T13:50:17.607Z,6.27
2019-06-01T13:52:47.945Z,6.13
2019-06-01T13:55:18.434Z,7.70
2019-06-01T13:57:48.358Z,5.13
2019-06-01T14:00:29.836Z,6.00
2019-06-01T14:02:53.721Z,4.00
2019-06-01T14:05:20.080Z,4.10
2019-06-01T14:07:51.534Z,7.95
2019-06-01T14:10:23.431Z,5.97
2019-06-01T14:12:53.488Z,5.08
2019-06-01T14:15:22.880Z,2.77
2019-06-01T14:17:52.404Z,5.20
2019-06-01T14:20:21.823Z,6.33
2019-06-01T14:22:51.945Z,7.40
2019-06-01T14:25:21.465Z,9.20
2019-06-01T14:27:51.948Z,3.47
2019-06-01T14:30:24.051Z,5.95
2019-06-01T14:32:52.451Z,6.30
2019-06-01T14:35:21.768Z,5.20
2019-06-01T14:37:51.740Z,12.82
2019-06-01T14:40:22.313Z,10.40
2019-06-01T14:42:53.653Z,9.90
2019-06-01T14:45:22.950Z,4.70
2019-06-01T14:47:53.415Z,4.17
2019-06-01T14:50:22.809Z,5.28
2019-06-01T14:52:52.143Z,4.47
2019-06-01T14:55:21.445Z,9.25
2019-06-01T14:57:52.315Z,5.05
2019-06-01T15:00:22.037Z,9.70
2019-06-01T15:02:52.326Z,8.18
2019-06-01T15:05:21.625Z,5.72
2019-06-01T15:07:52.245Z,10.72
2019-06-01T15:10:21.678Z,6.25
2019-06-01T15:12:55.530Z,5.62
2019-06-01T15:15:22.318Z,3.12
2019-06-01T15:17:51.845Z,5.72
2019-06-01T15:20:21.219Z,8.83
2019-06-01T15:22:50.499Z,8.58
2019-06-01T15:25:19.811Z,7.12
2019-06-01T15:27:50.538Z,4.85
2019-06-01T15:30:20.256Z,2.55
2019-06-01T15:32:50.501Z,3.47
2019-06-01T15:35:19.794Z,5.72
2019-06-01T15:37:51.186Z,8.33
2019-06-01T15:40:20.463Z,4.33
2019-06-01T15:42:51.782Z,3.87
2019-06-01T15:45:21.503Z,2.80
2019-06-01T15:47:51.267Z,6.35
2019-06-01T15:50:20.659Z,5.25
2019-06-01T15:52:50.919Z,5.80
2019-06-01T15:55:20.268Z,2.87
2019-06-01T15:57:49.572Z,7.70
2019-06-01T16:00:18.918Z,9.00
2019-06-01T16:02:48.214Z,4.85
2019-06-01T16:05:17.558Z,3.65
2019-06-01T16:07:46.859Z,7.95
2019-06-01T16:10:16.137Z,16.65
2019-06-01T16:12:45.427Z,8.53
2019-06-01T16:15:15.750Z,6.97
2019-06-01T16:17:45.042Z,8.88
2019-06-01T16:20:14.809Z,15.00
2019-06-01T16:22:44.277Z,9.18
2019-06-01T16:25:15.140Z,6.28
2019-06-01T16:27:44.426Z,11.45
2019-06-01T16:30:13.844Z,4.90
2019-06-01T16:32:43.135Z,4.03
2019-06-01T16:35:13.156Z,6.47
2019-06-01T16:37:42.435Z,4.25
2019-06-01T16:40:13.727Z,11.50
2019-06-01T16:42:43.050Z,7.95
2019-06-01T16:45:12.567Z,6.15
2019-06-01T16:47:41.855Z,13.10
2019-06-01T16:50:11.983Z,3.50
2019-06-01T16:52:41.311Z,5.55
2019-06-01T16:55:11.862Z,4.30
2019-06-01T16:57:41.220Z,6.70
2019-06-01T17:00:12.507Z,6.55
2019-06-01T17:02:41.791Z,4.05
2019-06-01T17:05:12.204Z,4.47
2019-06-01T17:07:41.495Z,7.58
2019-06-01T17:10:25.057Z,6.92
2019-06-01T17:12:43.850Z,5.12
2019-06-01T17:15:13.967Z,5.92
2019-06-01T17:17:43.256Z,7.47
2019-06-01T17:20:35.523Z,6.40
2019-06-01T17:23:22.915Z,4.53
2019-06-01T17:25:36.869Z,6.97
2019-06-01T17:28:07.305Z,8.23
2019-06-01T17:30:36.575Z,4.12
2019-06-01T17:33:06.528Z,10.43
2019-06-01T17:35:36.740Z,3.92
2019-06-01T17:38:07.270Z,8.00
2019-06-01T17:40:41.371Z,8.20
2019-06-01T17:43:08.927Z,10.35
2019-06-01T17:45:38.421Z,3.27
2019-06-01T17:48:24.314Z,4.55
2019-06-01T17:50:38.968Z,5.08
2019-06-01T17:53:08.847Z,3.83
2019-06-01T17:55:41.454Z,5.70
2019-06-01T17:58:12.489Z,5.78
2019-06-01T18:00:41.922Z,5.08
2019-06-01T18:03:12.276Z,4.53
2019-06-01T18:05:42.585Z,6.33
2019-06-01T18:08:12.594Z,2.17
2019-06-01T18:10:53.190Z,4.72
2019-06-01T18:13:13.537Z,5.00
2019-06-01T18:15:42.902Z,6.40
2019-06-01T18:18:12.878Z,10.68
2019-06-01T18:20:42.427Z,1.72
2019-06-01T18:23:13.224Z,3.33
2019-06-01T18:25:42.766Z,4.85
2019-06-01T18:28:16.178Z,6.22
2019-06-01T18:30:44.206Z,9.33
2019-06-01T18:33:13.554Z,6.17
2019-06-01T18:35:42.850Z,6.15
2019-06-01T18:38:13.040Z,10.40
2019-06-01T18:40:44.195Z,3.77
2019-06-01T18:43:16.574Z,7.95
2019-06-01T18:45:47.197Z,10.00
2019-06-01T18:48:17.014Z,5.90
2019-06-01T18:50:46.671Z,7.22
2019-06-01T18:53:15.951Z,7.50
2019-06-01T18:55:45.313Z,4.33
2019-06-01T18:58:14.868Z,5.97
2019-06-01T19:00:44.250Z,7.15
2019-06-01T19:03:14.016Z,14.20
2019-06-01T19:05:44.616Z,4.07
2019-06-01T19:08:14.001Z,5.65
2019-06-01T19:10:44.193Z,8.20
2019-06-01T19:13:14.005Z,3.97
2019-06-01T19:15:43.352Z,4.50
2019-06-01T19:18:12.761Z,11.00
2019-06-01T19:20:42.095Z,4.03
2019-06-01T19:23:12.686Z,6.20
2019-06-01T19:25:42.047Z,4.53
2019-06-01T19:28:11.365Z,7.43
2019-06-01T19:30:42.443Z,8.70
2019-06-01T19:33:15.330Z,11.80
2019-06-01T19:35:43.060Z,11.93
2019-06-01T19:38:13.354Z,13.83
2019-06-01T19:40:42.870Z,16.07
2019-06-01T19:43:13.369Z,12.37
2019-06-01T19:45:42.715Z,10.40
2019-06-01T19:48:12.459Z,6.90
2019-06-01T19:50:41.854Z,8.37
2019-06-01T19:53:11.137Z,8.77
2019-06-01T19:55:40.423Z,15.67
2019-06-01T19:58:10.134Z,30.43
2019-06-01T20:00:39.471Z,18.17
2019-06-01T20:03:08.746Z,17.30
2019-06-01T20:05:38.054Z,14.17
2019-06-01T20:08:07.343Z,13.90
2019-06-01T20:10:36.619Z,12.17
2019-06-01T20:13:05.954Z,12.43
2019-06-01T20:15:35.275Z,18.70
2019-06-01T20:18:04.631Z,20.63
2019-06-01T20:20:33.914Z,16.47
2019-06-01T20:23:03.198Z,24.13
2019-06-01T20:25:32.491Z,16.27
2019-06-01T20:28:01.779Z,25.33
2019-06-01T20:30:32.030Z,43.60
2019-06-01T20:33:01.330Z,72.50
2019-06-01T20:35:30.628Z,32.30
2019-06-01T20:37:59.997Z,31.63
2019-06-01T20:40:29.354Z,11.23
2019-06-01T20:42:58.647Z,16.60
2019-06-01T20:45:27.926Z,15.33
2019-06-01T20:47:57.225Z,21.17
2019-06-01T20:50:27.462Z,15.20
2019-06-01T20:52:56.761Z,15.33
2019-06-01T20:55:26.039Z,15.57
2019-06-01T20:57:55.347Z,9.97
2019-06-01T21:00:24.845Z,9.33
2019-06-01T21:02:54.199Z,15.87
2019-06-01T21:05:24.056Z,10.20
2019-06-01T21:07:57.015Z,9.70
2019-06-01T21:10:24.549Z,13.97
2019-06-01T21:12:53.839Z,21.47
2019-06-01T21:15:23.412Z,12.40
2019-06-01T21:17:52.787Z,12.60
2019-06-01T21:20:28.539Z,12.80
2019-06-01T21:22:53.339Z,17.23
2019-06-01T21:25:22.920Z,16.97
2019-06-01T21:27:53.250Z,10.30
2019-06-01T21:30:24.215Z,13.53
2019-06-01T21:32:54.005Z,12.57
2019-06-01T21:35:23.521Z,12.03
2019-06-01T21:37:52.864Z,13.03
2019-06-01T21:40:23.834Z,9.17
2019-06-01T21:43:06.775Z,9.87
2019-06-01T21:45:25.813Z,15.47
2019-06-01T21:47:55.170Z,12.73
2019-06-01T21:50:24.458Z,15.07
2019-06-01T21:52:53.751Z,10.43
2019-06-01T21:55:24.196Z,10.77
2019-06-01T21:57:53.810Z,16.47
2019-06-01T22:00:38.586Z,11.77
2019-06-01T22:03:09.566Z,10.10
2019-06-01T22:05:38.839Z,9.90
2019-06-01T22:08:08.124Z,16.80
2019-06-01T22:10:37.460Z,10.27
2019-06-01T22:13:18.126Z,17.13
2019-06-01T22:15:37.718Z,13.23
2019-06-01T22:18:07.010Z,11.40
2019-06-01T22:20:36.298Z,11.37
2019-06-01T22:23:06.150Z,7.80
2019-06-01T22:25:36.395Z,13.07
2019-06-01T22:28:05.675Z,12.33
2019-06-01T22:30:34.969Z,16.67
2019-06-01T22:33:04.248Z,9.07
2019-06-01T22:35:33.615Z,9.97
2019-06-01T22:38:02.894Z,11.83
2019-06-01T22:40:32.208Z,12.83
2019-06-01T22:43:01.482Z,10.87
2019-06-01T22:45:30.767Z,10.87
2019-06-01T22:48:00.050Z,13.97
2019-06-01T22:50:29.436Z,8.90
2019-06-01T22:52:58.687Z,8.97
2019-06-01T22:55:28.661Z,7.87
2019-06-01T22:57:57.914Z,8.77
2019-06-01T23:00:27.867Z,7.47
2019-06-01T23:02:57.868Z,7.10
2019-06-01T23:05:27.248Z,6.13
2019-06-01T23:07:56.526Z,8.50
2019-06-01T23:10:31.321Z,9.60
2019-06-01T23:12:57.645Z,13.47
2019-06-01T23:15:27.947Z,8.47
2019-06-01T23:17:57.768Z,15.47
2019-06-01T23:20:27.952Z,9.60
2019-06-01T23:22:57.866Z,11.70
2019-06-01T23:25:28.591Z,10.13
2019-06-01T23:27:58.483Z,13.67
2019-06-01T23:30:28.456Z,9.90
2019-06-01T23:32:58.181Z,8.87
2019-06-01T23:35:28.576Z,16.60
2019-06-01T23:37:58.278Z,19.13
2019-06-01T23:40:28.724Z,10.73
2019-06-01T23:42:58.155Z,9.30
2019-06-01T23:45:28.750Z,17.60
2019-06-01T23:47:58.109Z,10.67
2019-06-01T23:50:27.403Z,15.13
2019-06-01T23:53:04.553Z,10.57
2019-06-01T23:55:27.795Z,12.00
2019-06-01T23:57:58.098Z,13.10
